createdAt,value
2018-09-08T00:00:59.482Z,15.70
2018-09-08T00:03:27.454Z,15.70
2018-09-08T00:05:55.358Z,15.80
2018-09-08T00:08:22.870Z,15.80
2018-09-08T00:10:50.755Z,15.70
2018-09-08T00:13:18.684Z,15.70
2018-09-08T00:15:52.012Z,15.70
2018-09-08T00:18:25.310Z,15.80
2018-09-08T00:20:58.639Z,15.80
2018-09-08T00:23:32.027Z,15.80
2018-09-08T00:26:06.719Z,15.70
2018-09-08T00:28:38.784Z,15.70
2018-09-08T00:31:09.494Z,15.80
2018-09-08T00:33:36.991Z,15.70
2018-09-08T00:36:04.636Z,15.70
2018-09-08T00:38:32.534Z,15.70
2018-09-08T00:41:00.005Z,15.70
2018-09-08T00:43:28.334Z,15.70
2018-09-08T00:45:55.968Z,15.80
2018-09-08T00:48:24.070Z,15.80
2018-09-08T00:50:51.587Z,15.80
2018-09-08T00:53:19.515Z,15.90
2018-09-08T00:55:47.006Z,15.90
2018-09-08T00:58:14.525Z,15.90
2018-09-08T01:00:42.085Z,15.90
2018-09-08T01:03:10.249Z,15.90
2018-09-08T01:05:38.379Z,15.90
2018-09-08T01:08:05.963Z,16.00
2018-09-08T01:10:34.370Z,16.00
2018-09-08T01:13:02.486Z,16.00
2018-09-08T01:15:30.574Z,16.00
2018-09-08T01:17:58.261Z,16.00
2018-09-08T01:20:25.787Z,16.00
2018-09-08T01:22:53.382Z,15.90
2018-09-08T01:25:21.277Z,15.90
2018-09-08T01:27:48.836Z,15.90
2018-09-08T01:30:16.422Z,15.90
2018-09-08T01:32:44.582Z,15.90
2018-09-08T01:35:13.103Z,15.90
2018-09-08T01:37:41.359Z,16.00
2018-09-08T01:40:09.486Z,15.90
2018-09-08T01:42:37.635Z,16.00
2018-09-08T01:45:06.646Z,16.00
2018-09-08T01:47:34.932Z,16.00
2018-09-08T01:50:03.220Z,16.00
2018-09-08T01:52:31.318Z,15.90
2018-09-08T01:54:58.844Z,15.90
2018-09-08T01:57:26.354Z,15.90
2018-09-08T01:59:54.011Z,16.00
2018-09-08T02:02:21.595Z,16.00
2018-09-08T02:04:49.523Z,16.10
2018-09-08T02:07:17.047Z,16.10
2018-09-08T02:09:44.988Z,16.10
2018-09-08T02:12:12.814Z,16.10
2018-09-08T02:14:40.358Z,16.10
2018-09-08T02:17:07.894Z,16.10
2018-09-08T02:19:35.517Z,16.10
2018-09-08T02:22:03.110Z,16.10
2018-09-08T02:24:30.787Z,16.10
2018-09-08T02:26:59.306Z,16.10
2018-09-08T02:29:26.877Z,16.20
2018-09-08T02:31:56.363Z,16.20
2018-09-08T02:34:23.975Z,16.20
2018-09-08T02:36:52.108Z,16.20
2018-09-08T02:39:19.886Z,16.10
2018-09-08T02:41:47.405Z,16.10
2018-09-08T02:44:15.323Z,16.10
2018-09-08T02:46:42.864Z,16.10
2018-09-08T02:49:11.001Z,16.10
2018-09-08T02:51:37.451Z,16.10
2018-09-08T02:54:03.910Z,16.10
2018-09-08T02:56:30.399Z,16.20
2018-09-08T02:58:56.843Z,16.10
2018-09-08T03:01:23.950Z,16.20
2018-09-08T03:03:51.166Z,16.10
2018-09-08T03:06:18.271Z,16.10
2018-09-08T03:08:44.741Z,16.20
2018-09-08T03:11:11.533Z,16.20
2018-09-08T03:13:38.045Z,16.20
2018-09-08T03:16:04.507Z,16.10
2018-09-08T03:18:30.979Z,16.10
2018-09-08T03:20:57.502Z,16.10
2018-09-08T03:23:24.011Z,16.10
2018-09-08T03:25:50.805Z,16.00
2018-09-08T03:28:17.284Z,16.10
2018-09-08T03:30:44.420Z,16.10
2018-09-08T03:33:10.875Z,16.10
2018-09-08T03:35:37.334Z,16.10
2018-09-08T03:38:05.140Z,16.00
2018-09-08T03:40:31.595Z,16.00
2018-09-08T03:42:58.647Z,15.90
2018-09-08T03:45:25.102Z,15.90
2018-09-08T03:47:51.966Z,15.90
2018-09-08T03:50:18.427Z,15.90
2018-09-08T03:52:44.873Z,16.00
2018-09-08T03:55:12.878Z,16.00
2018-09-08T03:57:39.339Z,16.10
2018-09-08T04:00:05.796Z,16.10
2018-09-08T04:02:32.265Z,16.10
2018-09-08T04:05:00.310Z,16.10
2018-09-08T04:07:27.804Z,16.00
2018-09-08T04:09:55.299Z,16.00
2018-09-08T04:12:23.958Z,16.00
2018-09-08T04:14:51.566Z,16.00
2018-09-08T04:17:19.099Z,16.00
2018-09-08T04:19:46.691Z,15.90
2018-09-08T04:22:14.155Z,15.80
2018-09-08T04:24:41.814Z,15.90
2018-09-08T04:27:09.642Z,15.90
2018-09-08T04:29:37.313Z,15.90
2018-09-08T04:32:04.683Z,15.90
2018-09-08T04:34:32.222Z,16.00
2018-09-08T04:37:00.406Z,15.90
2018-09-08T04:39:28.319Z,15.90
2018-09-08T04:41:55.822Z,15.80
2018-09-08T04:44:24.318Z,15.80
2018-09-08T04:46:51.820Z,15.80
2018-09-08T04:49:19.321Z,15.80
2018-09-08T04:51:46.846Z,15.80
2018-09-08T04:54:14.351Z,15.80
2018-09-08T04:56:41.995Z,15.80
2018-09-08T04:59:10.243Z,15.80
2018-09-08T05:01:38.391Z,15.90
2018-09-08T05:04:06.165Z,15.90
2018-09-08T05:06:34.139Z,16.00
2018-09-08T05:09:01.684Z,16.00
2018-09-08T05:11:29.541Z,16.00
2018-09-08T05:13:57.052Z,15.90
2018-09-08T05:16:25.317Z,15.90
2018-09-08T05:18:52.819Z,15.90
2018-09-08T05:21:20.383Z,15.90
2018-09-08T05:23:47.909Z,15.90
2018-09-08T05:26:16.044Z,15.90
2018-09-08T05:28:43.591Z,16.00
2018-09-08T05:31:11.099Z,15.90
2018-09-08T05:33:38.623Z,16.00
2018-09-08T05:36:07.079Z,16.00
2018-09-08T05:38:34.974Z,16.10
2018-09-08T05:41:03.044Z,16.00
2018-09-08T05:43:32.647Z,16.00
2018-09-08T05:46:00.186Z,15.90
2018-09-08T05:48:27.711Z,15.90
2018-09-08T05:50:55.237Z,16.00
2018-09-08T05:53:22.764Z,15.90
2018-09-08T05:55:51.015Z,15.90
2018-09-08T05:58:19.139Z,16.00
2018-09-08T06:00:46.638Z,16.00
2018-09-08T06:03:14.699Z,16.00
2018-09-08T06:05:42.590Z,16.10
2018-09-08T06:08:10.135Z,16.00
2018-09-08T06:10:38.055Z,16.20
2018-09-08T06:13:06.015Z,16.20
2018-09-08T06:15:33.508Z,16.20
2018-09-08T06:18:01.029Z,16.30
2018-09-08T06:20:28.579Z,16.30
2018-09-08T06:22:56.967Z,16.30
2018-09-08T06:25:25.588Z,16.40
2018-09-08T06:27:53.343Z,16.60
2018-09-08T06:30:20.876Z,16.70
2018-09-08T06:32:49.733Z,16.80
2018-09-08T06:35:17.715Z,16.90
2018-09-08T06:37:45.699Z,17.00
2018-09-08T06:40:13.635Z,17.20
2018-09-08T06:42:41.693Z,17.20
2018-09-08T06:45:09.369Z,17.30
2018-09-08T06:47:37.902Z,17.50
2018-09-08T06:50:05.500Z,17.50
2018-09-08T06:52:33.088Z,17.50
2018-09-08T06:55:01.099Z,17.70
2018-09-08T06:57:29.348Z,17.90
2018-09-08T06:59:57.334Z,18.10
2018-09-08T07:02:25.236Z,18.20
2018-09-08T07:04:53.308Z,18.40
2018-09-08T07:07:20.862Z,18.40
2018-09-08T07:09:48.413Z,18.50
2018-09-08T07:12:16.941Z,18.50
2018-09-08T07:14:44.495Z,18.60
2018-09-08T07:17:12.529Z,18.60
2018-09-08T07:19:41.236Z,18.60
2018-09-08T07:22:08.820Z,18.70
2018-09-08T07:24:36.375Z,18.70
2018-09-08T07:27:04.699Z,18.70
2018-09-08T07:29:32.202Z,18.80
2018-09-08T07:32:00.718Z,18.80
2018-09-08T07:34:28.540Z,18.80
2018-09-08T07:36:56.651Z,18.80
2018-09-08T07:39:24.577Z,18.80
2018-09-08T07:41:52.121Z,18.90
2018-09-08T07:44:20.815Z,18.90
2018-09-08T07:46:48.378Z,18.90
2018-09-08T07:49:16.892Z,18.90
2018-09-08T07:51:44.583Z,19.00
2018-09-08T07:54:12.588Z,19.00
2018-09-08T07:56:40.251Z,19.00
2018-09-08T07:59:07.854Z,18.90
2018-09-08T08:01:35.403Z,18.90
2018-09-08T08:04:03.580Z,18.80
2018-09-08T08:06:31.473Z,18.80
2018-09-08T08:08:59.492Z,18.70
2018-09-08T08:11:27.959Z,18.70
2018-09-08T08:13:55.563Z,18.80
2018-09-08T08:16:23.464Z,18.90
2018-09-08T08:18:51.413Z,19.10
2018-09-08T08:21:19.406Z,19.20
2018-09-08T08:23:46.968Z,19.20
2018-09-08T08:26:15.107Z,19.20
2018-09-08T08:28:42.642Z,19.30
2018-09-08T08:31:10.936Z,19.40
2018-09-08T08:33:38.455Z,19.40
2018-09-08T08:36:06.498Z,19.40
2018-09-08T08:38:34.471Z,19.40
2018-09-08T08:41:02.009Z,19.50
2018-09-08T08:43:31.349Z,19.50
2018-09-08T08:45:58.867Z,19.50
2018-09-08T08:48:26.593Z,19.40
2018-09-08T08:51:05.883Z,19.50
2018-09-08T08:53:44.854Z,19.50
2018-09-08T08:56:13.381Z,19.50
2018-09-08T08:58:40.918Z,19.60
2018-09-08T09:01:09.869Z,19.60
2018-09-08T09:03:37.787Z,19.70
2018-09-08T09:06:06.527Z,19.80
2018-09-08T09:08:34.631Z,19.80
2018-09-08T09:11:02.188Z,19.80
2018-09-08T09:13:30.115Z,19.80
2018-09-08T09:15:59.123Z,20.00
2018-09-08T09:18:38.840Z,20.20
2018-09-08T09:21:17.398Z,20.20
2018-09-08T09:24:59.017Z,20.20
2018-09-08T09:27:27.952Z,20.20
2018-09-08T09:29:55.876Z,20.10
2018-09-08T09:32:23.807Z,20.00
2018-09-08T09:34:51.393Z,20.10
2018-09-08T09:37:19.835Z,20.00
2018-09-08T09:39:48.095Z,20.00
2018-09-08T09:42:16.215Z,19.80
2018-09-08T09:44:43.731Z,19.80
2018-09-08T09:47:12.600Z,19.90
2018-09-08T09:49:40.429Z,19.90
2018-09-08T09:52:08.654Z,19.90
2018-09-08T09:54:36.850Z,20.10
2018-09-08T09:57:04.860Z,20.20
2018-09-08T09:59:32.429Z,20.30
2018-09-08T10:03:06.310Z,20.40
2018-09-08T10:05:35.715Z,20.50
2018-09-08T10:08:03.427Z,20.70
2018-09-08T10:10:31.563Z,20.50
2018-09-08T10:13:00.491Z,20.60
2018-09-08T10:15:28.099Z,20.60
2018-09-08T10:17:55.719Z,20.70
2018-09-08T10:20:23.704Z,20.80
2018-09-08T10:22:51.292Z,21.00
2018-09-08T10:25:20.026Z,21.10
2018-09-08T10:27:48.137Z,21.10
2018-09-08T10:30:16.566Z,21.10
2018-09-08T10:32:46.113Z,21.20
2018-09-08T10:35:14.663Z,21.20
2018-09-08T10:37:42.670Z,21.30
2018-09-08T10:40:12.263Z,21.30
2018-09-08T10:42:40.071Z,21.30
2018-09-08T10:45:08.173Z,21.30
2018-09-08T10:47:37.491Z,21.40
2018-09-08T10:50:06.215Z,21.50
2018-09-08T10:52:42.084Z,21.30
2018-09-08T10:55:10.031Z,21.30
2018-09-08T10:57:37.551Z,21.20
2018-09-08T11:00:06.502Z,21.30
2018-09-08T11:02:34.179Z,21.40
2018-09-08T11:05:02.761Z,21.40
2018-09-08T11:07:31.267Z,21.40
2018-09-08T11:09:59.042Z,21.40
2018-09-08T11:12:26.872Z,21.50
2018-09-08T11:14:54.836Z,21.50
2018-09-08T11:17:22.804Z,21.60
2018-09-08T11:19:50.333Z,21.70
2018-09-08T11:22:18.356Z,21.50
2018-09-08T11:24:45.869Z,21.60
2018-09-08T11:27:14.167Z,21.50
2018-09-08T11:29:41.744Z,21.60
2018-09-08T11:32:09.660Z,21.70
2018-09-08T11:34:37.167Z,21.80
2018-09-08T11:37:05.180Z,21.80
2018-09-08T11:39:33.084Z,21.80
2018-09-08T11:42:00.605Z,21.90
2018-09-08T11:44:28.776Z,22.00
2018-09-08T11:46:56.300Z,21.90
2018-09-08T11:49:23.838Z,21.60
2018-09-08T11:51:51.442Z,21.40
2018-09-08T11:54:18.967Z,21.30
2018-09-08T11:56:46.558Z,21.20
2018-09-08T11:59:14.139Z,21.00
2018-09-08T12:01:41.676Z,21.00
2018-09-08T12:04:09.820Z,20.80
2018-09-08T12:06:37.788Z,20.90
2018-09-08T12:09:07.912Z,20.90
2018-09-08T12:11:36.057Z,20.90
2018-09-08T12:14:03.657Z,20.80
2018-09-08T12:16:31.944Z,21.10
2018-09-08T12:18:59.629Z,21.30
2018-09-08T12:21:27.470Z,21.60
2018-09-08T12:23:55.037Z,21.70
2018-09-08T12:26:23.211Z,21.90
2018-09-08T12:28:50.728Z,22.10
2018-09-08T12:31:18.220Z,22.10
2018-09-08T12:33:45.787Z,22.10
2018-09-08T12:36:13.977Z,22.20
2018-09-08T12:38:43.145Z,22.20
2018-09-08T12:41:10.939Z,22.30
2018-09-08T12:43:38.875Z,22.30
2018-09-08T12:46:06.400Z,22.30
2018-09-08T12:48:34.012Z,22.40
2018-09-08T12:51:01.567Z,22.40
2018-09-08T12:53:29.806Z,22.40
2018-09-08T12:55:57.331Z,22.50
2018-09-08T12:58:24.882Z,22.60
2018-09-08T13:00:52.422Z,22.70
2018-09-08T13:03:20.617Z,22.80
2018-09-08T13:05:48.604Z,22.60
2018-09-08T13:08:16.121Z,22.70
2018-09-08T13:10:43.998Z,22.80
2018-09-08T13:13:12.144Z,22.80
2018-09-08T13:15:39.631Z,22.80
2018-09-08T13:18:07.708Z,23.00
2018-09-08T13:20:35.216Z,22.90
2018-09-08T13:23:03.347Z,22.90
2018-09-08T13:25:30.863Z,23.00
2018-09-08T13:27:58.427Z,23.00
2018-09-08T13:30:25.997Z,23.00
2018-09-08T13:32:53.804Z,23.20
2018-09-08T13:35:21.304Z,23.10
2018-09-08T13:37:49.308Z,23.10
2018-09-08T13:40:17.243Z,23.30
2018-09-08T13:42:45.080Z,23.40
2018-09-08T13:45:12.993Z,23.40
2018-09-08T13:47:40.500Z,23.20
2018-09-08T13:50:08.022Z,23.30
2018-09-08T13:52:35.550Z,23.40
2018-09-08T13:55:03.155Z,23.40
2018-09-08T13:57:30.750Z,23.30
2018-09-08T13:59:58.295Z,23.40
2018-09-08T14:02:26.213Z,23.50
2018-09-08T14:04:54.451Z,23.50
2018-09-08T14:07:21.985Z,23.50
2018-09-08T14:09:49.484Z,23.50
2018-09-08T14:12:17.564Z,23.50
2018-09-08T14:14:45.466Z,23.60
2018-09-08T14:17:12.981Z,23.60
2018-09-08T14:19:41.524Z,24.00
2018-09-08T14:22:09.053Z,24.40
2018-09-08T14:24:36.564Z,24.90
2018-09-08T14:27:04.091Z,25.40
2018-09-08T14:29:31.588Z,25.70
2018-09-08T14:31:59.187Z,25.90
2018-09-08T14:34:26.724Z,26.20
2018-09-08T14:36:54.778Z,26.50
2018-09-08T14:39:22.994Z,26.60
2018-09-08T14:41:50.523Z,26.80
2018-09-08T14:44:18.922Z,26.90
2018-09-08T14:46:46.803Z,27.20
2018-09-08T14:49:14.323Z,27.50
2018-09-08T14:51:41.805Z,27.20
2018-09-08T14:54:09.343Z,27.60
2018-09-08T14:56:36.905Z,27.60
2018-09-08T14:59:06.019Z,27.70
2018-09-08T15:01:33.892Z,27.60
2018-09-08T15:04:01.783Z,27.80
2018-09-08T15:06:29.655Z,27.90
2018-09-08T15:08:57.518Z,28.00
2018-09-08T15:11:25.362Z,28.00
2018-09-08T15:13:53.233Z,28.30
2018-09-08T15:16:21.054Z,28.30
2018-09-08T15:18:49.135Z,28.30
2018-09-08T15:21:16.631Z,28.30
2018-09-08T15:23:44.147Z,28.40
2018-09-08T15:26:11.726Z,28.20
2018-09-08T15:28:39.218Z,28.50
2018-09-08T15:31:06.838Z,28.70
2018-09-08T15:33:35.015Z,28.80
2018-09-08T15:36:03.070Z,29.10
2018-09-08T15:38:30.904Z,29.00
2018-09-08T15:40:58.726Z,29.10
2018-09-08T15:43:26.583Z,29.00
2018-09-08T15:45:54.510Z,28.70
2018-09-08T15:48:22.617Z,28.60
2018-09-08T15:50:50.132Z,28.40
2018-09-08T15:53:17.655Z,28.00
2018-09-08T15:55:45.183Z,26.80
2018-09-08T15:58:13.527Z,25.70
2018-09-08T16:00:41.052Z,24.80
2018-09-08T16:03:09.467Z,23.90
2018-09-08T16:05:37.540Z,23.30
2018-09-08T16:08:05.724Z,22.80
2018-09-08T16:10:35.723Z,22.50
2018-09-08T16:13:03.963Z,22.40
2018-09-08T16:15:32.151Z,22.10
2018-09-08T16:17:59.700Z,21.90
2018-09-08T16:20:27.588Z,21.70
2018-09-08T16:22:55.302Z,21.50
2018-09-08T16:25:23.575Z,21.30
2018-09-08T16:27:51.148Z,21.10
2018-09-08T16:30:18.664Z,21.00
2018-09-08T16:32:46.750Z,21.00
2018-09-08T16:35:14.260Z,21.00
2018-09-08T16:37:42.323Z,20.90
2018-09-08T16:40:10.197Z,20.80
2018-09-08T16:42:38.819Z,20.70
2018-09-08T16:45:07.111Z,20.50
2018-09-08T16:47:35.371Z,20.40
2018-09-08T16:50:02.930Z,20.40
2018-09-08T16:52:30.541Z,20.30
2018-09-08T16:54:58.613Z,20.20
2018-09-08T16:57:27.451Z,20.10
2018-09-08T16:59:54.986Z,19.90
2018-09-08T17:02:23.626Z,19.80
2018-09-08T17:04:51.641Z,19.60
2018-09-08T17:07:19.145Z,19.40
2018-09-08T17:09:47.123Z,19.40
2018-09-08T17:12:15.435Z,19.30
2018-09-08T17:14:43.883Z,19.20
2018-09-08T17:17:11.393Z,19.10
2018-09-08T17:19:38.903Z,18.90
2018-09-08T17:22:06.466Z,18.80
2018-09-08T17:24:34.447Z,18.70
2018-09-08T17:27:01.983Z,18.60
2018-09-08T17:29:30.060Z,18.50
2018-09-08T17:31:57.588Z,18.40
2018-09-08T17:34:25.107Z,18.30
2018-09-08T17:36:52.999Z,18.30
2018-09-08T17:39:20.929Z,18.10
2018-09-08T17:41:48.844Z,18.00
2018-09-08T17:44:16.777Z,18.00
2018-09-08T17:46:44.673Z,17.80
2018-09-08T17:49:12.238Z,17.70
2018-09-08T17:51:39.766Z,17.70
2018-09-08T17:54:07.700Z,17.50
2018-09-08T17:56:35.199Z,17.50
2018-09-08T17:59:02.841Z,17.40
2018-09-08T18:01:30.402Z,17.30
2018-09-08T18:03:58.600Z,17.20
2018-09-08T18:06:26.727Z,17.10
2018-09-08T18:08:54.693Z,17.10
2018-09-08T18:11:22.572Z,17.10
2018-09-08T18:13:50.860Z,17.00
2018-09-08T18:16:18.443Z,16.80
2018-09-08T18:18:46.307Z,16.80
2018-09-08T18:21:14.108Z,16.70
2018-09-08T18:23:42.855Z,16.70
2018-09-08T18:26:10.487Z,16.70
2018-09-08T18:28:38.391Z,16.60
2018-09-08T18:31:05.935Z,16.50
2018-09-08T18:33:33.476Z,16.40
2018-09-08T18:36:01.676Z,16.30
2018-09-08T18:38:29.979Z,16.30
2018-09-08T18:40:58.164Z,16.30
2018-09-08T18:43:25.804Z,16.30
2018-09-08T18:45:53.324Z,16.30
2018-09-08T18:48:21.877Z,16.20
2018-09-08T18:50:49.373Z,16.20
2018-09-08T18:53:17.915Z,16.20
2018-09-08T18:55:45.519Z,16.10
2018-09-08T18:58:13.039Z,16.10
2018-09-08T19:00:40.588Z,16.00
2018-09-08T19:03:08.521Z,16.00
2018-09-08T19:05:36.558Z,15.90
2018-09-08T19:08:04.526Z,15.90
2018-09-08T19:10:33.625Z,15.80
2018-09-08T19:13:02.475Z,15.80
2018-09-08T19:15:30.423Z,15.80
2018-09-08T19:17:57.954Z,15.60
2018-09-08T19:20:31.162Z,15.50
2018-09-08T19:22:59.275Z,15.50
2018-09-08T19:25:27.244Z,15.50
2018-09-08T19:27:55.536Z,15.50
2018-09-08T19:30:23.268Z,15.40
2018-09-08T19:32:50.829Z,15.40
2018-09-08T19:35:24.235Z,15.40
2018-09-08T19:37:52.255Z,15.40
2018-09-08T19:40:26.160Z,15.30
2018-09-08T19:42:54.367Z,15.30
2018-09-08T19:45:22.450Z,15.30
2018-09-08T19:47:56.002Z,15.30
2018-09-08T19:50:24.238Z,15.20
2018-09-08T19:52:57.580Z,15.10
2018-09-08T19:55:25.259Z,15.00
2018-09-08T19:57:58.297Z,15.00
2018-09-08T20:00:26.623Z,15.00
2018-09-08T20:02:55.870Z,14.90
2018-09-08T20:05:24.588Z,14.90
2018-09-08T20:07:52.332Z,14.90
2018-09-08T20:10:20.219Z,14.90
2018-09-08T20:12:48.334Z,14.90
2018-09-08T20:15:16.576Z,14.80
2018-09-08T20:17:44.111Z,14.80
2018-09-08T20:20:11.635Z,14.80
2018-09-08T20:22:39.995Z,14.80
2018-09-08T20:25:07.511Z,14.70
2018-09-08T20:27:35.228Z,14.70
2018-09-08T20:30:03.084Z,14.60
2018-09-08T20:32:30.617Z,14.60
2018-09-08T20:34:58.252Z,14.60
2018-09-08T20:37:26.293Z,14.60
2018-09-08T20:39:54.695Z,14.60
2018-09-08T20:42:22.910Z,14.60
2018-09-08T20:44:50.422Z,14.50
2018-09-08T20:47:19.102Z,14.40
2018-09-08T20:49:46.630Z,14.40
2018-09-08T20:52:14.498Z,14.30
2018-09-08T20:54:42.100Z,14.30
2018-09-08T20:57:09.806Z,14.30
2018-09-08T20:59:37.838Z,14.30
2018-09-08T21:02:06.044Z,14.30
2018-09-08T21:04:34.303Z,14.20
2018-09-08T21:07:02.182Z,14.20
2018-09-08T21:09:30.985Z,14.20
2018-09-08T21:11:59.630Z,14.20
2018-09-08T21:14:27.491Z,14.20
2018-09-08T21:16:55.336Z,14.10
2018-09-08T21:19:23.171Z,14.10
2018-09-08T21:21:52.122Z,14.10
2018-09-08T21:24:20.324Z,14.10
2018-09-08T21:26:47.820Z,14.10
2018-09-08T21:29:15.353Z,14.00
2018-09-08T21:31:42.919Z,14.00
2018-09-08T21:34:10.454Z,14.00
2018-09-08T21:36:38.565Z,14.00
2018-09-08T21:39:07.983Z,13.90
2018-09-08T21:41:36.107Z,13.90
2018-09-08T21:44:04.463Z,13.90
2018-09-08T21:46:33.550Z,13.90
2018-09-08T21:49:01.088Z,13.90
2018-09-08T21:51:28.590Z,13.80
2018-09-08T21:53:56.183Z,13.80
2018-09-08T21:56:24.255Z,13.80
2018-09-08T21:58:51.789Z,13.80
2018-09-08T22:01:24.742Z,13.80
2018-09-08T22:03:53.422Z,13.70
2018-09-08T22:06:22.371Z,13.70
2018-09-08T22:08:49.870Z,13.70
2018-09-08T22:11:17.777Z,13.70
2018-09-08T22:13:45.695Z,13.70
2018-09-08T22:16:13.239Z,13.70
2018-09-08T22:18:41.393Z,13.70
2018-09-08T22:21:08.924Z,13.60
2018-09-08T22:23:36.969Z,13.60
2018-09-08T22:26:04.697Z,13.60
2018-09-08T22:28:32.217Z,13.70
2018-09-08T22:31:01.475Z,13.70
2018-09-08T22:33:29.008Z,13.70
2018-09-08T22:35:56.775Z,13.70
2018-09-08T22:38:25.355Z,13.80
2018-09-08T22:40:53.271Z,13.70
2018-09-08T22:43:21.095Z,13.70
2018-09-08T22:45:48.695Z,13.60
2018-09-08T22:48:16.226Z,13.60
2018-09-08T22:50:43.789Z,13.60
2018-09-08T22:53:11.955Z,13.60
2018-09-08T22:55:39.478Z,13.60
2018-09-08T22:58:08.462Z,13.60
2018-09-08T23:00:36.765Z,13.50
2018-09-08T23:03:05.124Z,13.40
2018-09-08T23:05:32.990Z,13.30
2018-09-08T23:14:48.038Z,13.30
2018-09-08T23:17:15.886Z,13.20
2018-09-08T23:19:43.390Z,13.20
2018-09-08T23:22:10.886Z,13.20
2018-09-08T23:24:38.398Z,13.20
2018-09-08T23:27:06.452Z,13.20
2018-09-08T23:29:34.052Z,13.10
2018-09-08T23:32:02.244Z,13.20
2018-09-08T23:34:29.793Z,13.20
2018-09-08T23:36:58.638Z,13.20
2018-09-08T23:39:26.854Z,13.20
2018-09-08T23:41:54.348Z,13.20
2018-09-08T23:44:22.366Z,13.10
2018-09-08T23:46:49.883Z,13.10
2018-09-08T23:49:17.403Z,13.00
2018-09-08T23:51:45.255Z,12.90
2018-09-08T23:54:12.765Z,12.90
2018-09-08T23:56:40.637Z,12.90
2018-09-08T23:59:08.156Z,12.80
